sensor_id;sensor_type;location;lat;lon;timestamp;pressure;altitude;pressure_sealevel;temperature;humidity
113;BME280;45999;48.808;9.182;2023-08-30T00:01:56;97491.56;;;14.59;100.00
113;BME280;45999;48.808;9.182;2023-08-30T00:04:22;97494.50;;;14.57;100.00
113;BME280;45999;48.808;9.182;2023-08-30T00:06:49;97495.81;;;14.55;100.00
113;BME280;45999;48.808;9.182;2023-08-30T00:09:15;97499.28;;;14.50;100.00
113;BME280;45999;48.808;9.182;2023-08-30T00:11:41;97488.78;;;14.39;100.00
113;BME280;45999;48.808;9.182;2023-08-30T00:14:08;97488.28;;;14.42;100.00
113;BME280;45999;48.808;9.182;2023-08-30T00:16:35;97495.44;;;14.36;100.00
113;BME280;45999;48.808;9.182;2023-08-30T00:19:03;97491.44;;;14.39;100.00
113;BME280;45999;48.808;9.182;2023-08-30T00:21:29;97486.28;;;14.27;100.00
113;BME280;45999;48.808;9.182;2023-08-30T00:23:56;97484.63;;;14.21;100.00
113;BME280;45999;48.808;9.182;2023-08-30T00:26:22;97479.03;;;14.28;100.00
113;BME280;45999;48.808;9.182;2023-08-30T00:28:48;97490.81;;;14.27;100.00
113;BME280;45999;48.808;9.182;2023-08-30T00:31:15;97481.31;;;14.14;100.00
113;BME280;45999;48.808;9.182;2023-08-30T00:33:41;97482.94;;;14.15;100.00
113;BME280;45999;48.808;9.182;2023-08-30T00:36:07;97474.91;;;14.15;100.00
113;BME280;45999;48.808;9.182;2023-08-30T00:38:34;97475.31;;;14.24;100.00
113;BME280;45999;48.808;9.182;2023-08-30T00:41:00;97472.31;;;14.20;100.00
113;BME280;45999;48.808;9.182;2023-08-30T00:43:27;97464.22;;;14.15;100.00
113;BME280;45999;48.808;9.182;2023-08-30T00:45:53;97461.66;;;14.25;100.00
113;BME280;45999;48.808;9.182;2023-08-30T00:48:20;97460.66;;;14.31;100.00
113;BME280;45999;48.808;9.182;2023-08-30T00:50:46;97452.63;;;14.31;100.00
113;BME280;45999;48.808;9.182;2023-08-30T00:53:13;97453.16;;;14.33;100.00
113;BME280;45999;48.808;9.182;2023-08-30T00:55:42;97455.22;;;14.21;100.00
113;BME280;45999;48.808;9.182;2023-08-30T00:58:09;97458.09;;;14.15;100.00
113;BME280;45999;48.808;9.182;2023-08-30T01:00:36;97451.44;;;14.17;100.00
113;BME280;45999;48.808;9.182;2023-08-30T01:03:05;97454.31;;;14.11;100.00
113;BME280;45999;48.808;9.182;2023-08-30T01:05:32;97451.88;;;14.09;100.00
113;BME280;45999;48.808;9.182;2023-08-30T01:07:58;97436.41;;;14.16;100.00
113;BME280;45999;48.808;9.182;2023-08-30T01:10:38;97444.97;;;14.13;100.00
113;BME280;45999;48.808;9.182;2023-08-30T01:13:09;97442.06;;;14.15;100.00
113;BME280;45999;48.808;9.182;2023-08-30T01:15:38;97437.66;;;14.04;100.00
113;BME280;45999;48.808;9.182;2023-08-30T01:18:05;97434.75;;;14.05;100.00
113;BME280;45999;48.808;9.182;2023-08-30T01:20:35;97436.34;;;14.06;100.00
113;BME280;45999;48.808;9.182;2023-08-30T01:28:31;97430.25;;;14.11;100.00
113;BME280;45999;48.808;9.182;2023-08-30T01:30:59;97433.69;;;14.06;100.00
113;BME280;45999;48.808;9.182;2023-08-30T01:33:26;97435.78;;;13.99;100.00
113;BME280;45999;48.808;9.182;2023-08-30T01:35:57;97438.41;;;13.94;100.00
113;BME280;45999;48.808;9.182;2023-08-30T01:38:28;97437.88;;;13.97;100.00
113;BME280;45999;48.808;9.182;2023-08-30T01:40:57;97436.00;;;13.93;100.00
113;BME280;45999;48.808;9.182;2023-08-30T01:43:26;97445.31;;;13.90;100.00
113;BME280;45999;48.808;9.182;2023-08-30T01:45:54;97437.50;;;13.84;100.00
113;BME280;45999;48.808;9.182;2023-08-30T01:48:22;97446.06;;;13.86;100.00
113;BME280;45999;48.808;9.182;2023-08-30T01:50:49;97442.28;;;13.82;100.00
113;BME280;45999;48.808;9.182;2023-08-30T01:53:16;97440.00;;;13.95;100.00
113;BME280;45999;48.808;9.182;2023-08-30T01:55:43;97443.84;;;13.78;100.00
113;BME280;45999;48.808;9.182;2023-08-30T01:58:09;97448.16;;;13.79;100.00
113;BME280;45999;48.808;9.182;2023-08-30T02:00:36;97453.38;;;13.69;100.00
113;BME280;45999;48.808;9.182;2023-08-30T02:03:13;97453.34;;;13.64;100.00
113;BME280;45999;48.808;9.182;2023-08-30T02:06:09;97455.81;;;13.70;100.00
113;BME280;45999;48.808;9.182;2023-08-30T02:08:51;97456.59;;;13.66;100.00
113;BME280;45999;48.808;9.182;2023-08-30T02:11:26;97462.22;;;13.69;100.00
113;BME280;45999;48.808;9.182;2023-08-30T02:13:57;97458.69;;;13.64;100.00
113;BME280;45999;48.808;9.182;2023-08-30T02:16:25;97464.28;;;13.62;100.00
113;BME280;45999;48.808;9.182;2023-08-30T02:18:52;97459.09;;;13.77;100.00
113;BME280;45999;48.808;9.182;2023-08-30T02:21:19;97458.22;;;13.72;100.00
113;BME280;45999;48.808;9.182;2023-08-30T02:23:50;97454.41;;;13.63;100.00
113;BME280;45999;48.808;9.182;2023-08-30T02:26:20;97452.63;;;13.73;100.00
113;BME280;45999;48.808;9.182;2023-08-30T02:28:47;97455.47;;;13.62;100.00
113;BME280;45999;48.808;9.182;2023-08-30T02:31:13;97451.47;;;13.64;100.00
113;BME280;45999;48.808;9.182;2023-08-30T02:33:39;97457.28;;;13.56;100.00
113;BME280;45999;48.808;9.182;2023-08-30T02:36:06;97456.78;;;13.59;100.00
113;BME280;45999;48.808;9.182;2023-08-30T02:38:33;97452.56;;;13.63;100.00
113;BME280;45999;48.808;9.182;2023-08-30T02:40:59;97460.47;;;13.53;100.00
113;BME280;45999;48.808;9.182;2023-08-30T02:43:25;97459.91;;;13.51;100.00
113;BME280;45999;48.808;9.182;2023-08-30T02:45:52;97463.69;;;13.55;100.00
113;BME280;45999;48.808;9.182;2023-08-30T02:48:18;97457.28;;;13.56;100.00
113;BME280;45999;48.808;9.182;2023-08-30T02:50:45;97462.13;;;13.59;100.00
113;BME280;45999;48.808;9.182;2023-08-30T02:53:11;97463.47;;;13.62;100.00
113;BME280;45999;48.808;9.182;2023-08-30T02:55:37;97456.81;;;13.64;100.00
113;BME280;45999;48.808;9.182;2023-08-30T02:58:04;97461.06;;;13.60;100.00
113;BME280;45999;48.808;9.182;2023-08-30T03:00:30;97462.50;;;13.46;100.00
113;BME280;45999;48.808;9.182;2023-08-30T03:02:56;97461.22;;;13.49;100.00
113;BME280;45999;48.808;9.182;2023-08-30T03:05:23;97456.50;;;13.56;100.00
113;BME280;45999;48.808;9.182;2023-08-30T03:07:49;97449.41;;;13.45;100.00
113;BME280;45999;48.808;9.182;2023-08-30T03:10:16;97456.88;;;13.43;100.00
113;BME280;45999;48.808;9.182;2023-08-30T03:12:42;97450.44;;;13.39;100.00
113;BME280;45999;48.808;9.182;2023-08-30T03:15:09;97450.19;;;13.40;100.00
113;BME280;45999;48.808;9.182;2023-08-30T03:17:35;97447.03;;;13.48;100.00
113;BME280;45999;48.808;9.182;2023-08-30T03:20:02;97446.75;;;13.45;100.00
113;BME280;45999;48.808;9.182;2023-08-30T03:22:31;97439.22;;;13.42;100.00
113;BME280;45999;48.808;9.182;2023-08-30T03:24:58;97431.59;;;13.50;100.00
113;BME280;45999;48.808;9.182;2023-08-30T03:27:27;97430.47;;;13.46;100.00
113;BME280;45999;48.808;9.182;2023-08-30T03:29:55;97433.44;;;13.50;100.00
113;BME280;45999;48.808;9.182;2023-08-30T03:32:21;97436.00;;;13.66;100.00
113;BME280;45999;48.808;9.182;2023-08-30T03:34:48;97426.38;;;13.65;100.00
113;BME280;45999;48.808;9.182;2023-08-30T03:37:16;97429.66;;;13.72;100.00
113;BME280;45999;48.808;9.182;2023-08-30T03:39:43;97429.53;;;13.89;100.00
113;BME280;45999;48.808;9.182;2023-08-30T03:42:09;97426.50;;;13.80;100.00
113;BME280;45999;48.808;9.182;2023-08-30T03:44:37;97426.44;;;13.70;100.00
113;BME280;45999;48.808;9.182;2023-08-30T03:47:04;97427.53;;;13.74;100.00
113;BME280;45999;48.808;9.182;2023-08-30T03:49:30;97427.63;;;13.84;100.00
113;BME280;45999;48.808;9.182;2023-08-30T03:51:57;97428.44;;;13.85;100.00
113;BME280;45999;48.808;9.182;2023-08-30T03:54:23;97435.63;;;13.84;100.00
113;BME280;45999;48.808;9.182;2023-08-30T03:56:49;97429.75;;;13.82;100.00
113;BME280;45999;48.808;9.182;2023-08-30T03:59:16;97428.63;;;13.78;100.00
113;BME280;45999;48.808;9.182;2023-08-30T04:01:42;97437.19;;;13.80;100.00
113;BME280;45999;48.808;9.182;2023-08-30T04:04:08;97435.59;;;13.79;100.00
113;BME280;45999;48.808;9.182;2023-08-30T04:06:35;97445.22;;;13.80;100.00
113;BME280;45999;48.808;9.182;2023-08-30T04:09:01;97431.63;;;13.87;100.00
113;BME280;45999;48.808;9.182;2023-08-30T04:11:28;97438.00;;;13.81;100.00
113;BME280;45999;48.808;9.182;2023-08-30T04:13:54;97444.13;;;13.76;100.00
113;BME280;45999;48.808;9.182;2023-08-30T04:16:20;97434.53;;;13.80;100.00
113;BME280;45999;48.808;9.182;2023-08-30T04:18:47;97448.13;;;13.74;100.00
113;BME280;45999;48.808;9.182;2023-08-30T04:21:13;97445.38;;;13.69;100.00
113;BME280;45999;48.808;9.182;2023-08-30T04:23:39;97439.53;;;13.72;100.00
113;BME280;45999;48.808;9.182;2023-08-30T04:26:06;97434.97;;;13.67;100.00
113;BME280;45999;48.808;9.182;2023-08-30T04:28:32;97443.31;;;13.76;100.00
113;BME280;45999;48.808;9.182;2023-08-30T04:30:59;97440.09;;;13.74;100.00
113;BME280;45999;48.808;9.182;2023-08-30T04:33:25;97438.59;;;13.83;100.00
113;BME280;45999;48.808;9.182;2023-08-30T04:35:53;97428.63;;;13.78;100.00
113;BME280;45999;48.808;9.182;2023-08-30T04:38:20;97447.38;;;13.83;100.00
113;BME280;45999;48.808;9.182;2023-08-30T04:40:47;97441.25;;;13.83;100.00
113;BME280;45999;48.808;9.182;2023-08-30T04:43:14;97445.66;;;13.99;100.00
113;BME280;45999;48.808;9.182;2023-08-30T04:45:41;97446.34;;;13.89;100.00
113;BME280;45999;48.808;9.182;2023-08-30T04:48:07;97446.88;;;13.86;100.00
113;BME280;45999;48.808;9.182;2023-08-30T04:50:33;97441.16;;;14.04;100.00
113;BME280;45999;48.808;9.182;2023-08-30T04:53:00;97441.75;;;13.80;100.00
113;BME280;45999;48.808;9.182;2023-08-30T04:55:28;97440.94;;;13.79;100.00
113;BME280;45999;48.808;9.182;2023-08-30T04:57:55;97441.75;;;13.80;100.00
113;BME280;45999;48.808;9.182;2023-08-30T05:00:22;97440.22;;;13.89;100.00
113;BME280;45999;48.808;9.182;2023-08-30T05:02:48;97432.72;;;13.86;100.00
113;BME280;45999;48.808;9.182;2023-08-30T05:05:15;97435.28;;;13.76;100.00
113;BME280;45999;48.808;9.182;2023-08-30T05:07:41;97428.03;;;13.71;100.00
113;BME280;45999;48.808;9.182;2023-08-30T05:10:08;97429.13;;;13.75;100.00
113;BME280;45999;48.808;9.182;2023-08-30T05:12:34;97437.03;;;13.92;100.00
113;BME280;45999;48.808;9.182;2023-08-30T05:15:01;97434.03;;;13.83;100.00
113;BME280;45999;48.808;9.182;2023-08-30T05:17:29;97437.31;;;13.90;100.00
113;BME280;45999;48.808;9.182;2023-08-30T05:19:55;97446.88;;;13.86;100.00
113;BME280;45999;48.808;9.182;2023-08-30T05:22:21;97432.47;;;13.87;100.00
113;BME280;45999;48.808;9.182;2023-08-30T05:24:48;97435.00;;;14.04;100.00
113;BME280;45999;48.808;9.182;2023-08-30T05:27:14;97440.34;;;14.04;100.00
113;BME280;45999;48.808;9.182;2023-08-30T05:29:42;97437.88;;;13.97;100.00
113;BME280;45999;48.808;9.182;2023-08-30T05:32:09;97443.47;;;13.96;100.00
113;BME280;45999;48.808;9.182;2023-08-30T05:34:35;97439.56;;;14.03;100.00
113;BME280;45999;48.808;9.182;2023-08-30T05:37:02;97436.19;;;13.86;100.00
113;BME280;45999;48.808;9.182;2023-08-30T05:39:28;97436.59;;;14.05;100.00
113;BME280;45999;48.808;9.182;2023-08-30T05:41:55;97434.03;;;14.15;100.00
113;BME280;45999;48.808;9.182;2023-08-30T05:44:21;97432.34;;;14.09;100.00
113;BME280;45999;48.808;9.182;2023-08-30T05:46:47;97434.22;;;14.03;100.00
113;BME280;45999;48.808;9.182;2023-08-30T05:49:14;97420.56;;;14.05;100.00
113;BME280;45999;48.808;9.182;2023-08-30T05:51:40;97433.13;;;14.04;100.00
113;BME280;45999;48.808;9.182;2023-08-30T05:54:07;97426.25;;;14.13;100.00
113;BME280;45999;48.808;9.182;2023-08-30T05:56:33;97438.78;;;14.08;100.00
113;BME280;45999;48.808;9.182;2023-08-30T05:58:59;97437.97;;;14.07;100.00
113;BME280;45999;48.808;9.182;2023-08-30T06:01:26;97440.59;;;14.02;100.00
113;BME280;45999;48.808;9.182;2023-08-30T06:03:52;97434.38;;;14.23;100.00
113;BME280;45999;48.808;9.182;2023-08-30T06:06:19;97429.03;;;14.23;100.00
113;BME280;45999;48.808;9.182;2023-08-30T06:08:46;97433.59;;;14.28;100.00
113;BME280;45999;48.808;9.182;2023-08-30T06:11:12;97436.84;;;14.30;100.00
113;BME280;45999;48.808;9.182;2023-08-30T06:13:39;97431.22;;;14.31;100.00
113;BME280;45999;48.808;9.182;2023-08-30T06:16:05;97439.25;;;14.31;100.00
113;BME280;45999;48.808;9.182;2023-08-30T06:18:32;97444.41;;;14.43;100.00
113;BME280;45999;48.808;9.182;2023-08-30T06:20:59;97447.41;;;14.51;100.00
113;BME280;45999;48.808;9.182;2023-08-30T06:23:25;97445.53;;;14.52;100.00
113;BME280;45999;48.808;9.182;2023-08-30T06:25:56;97447.44;;;14.61;100.00
113;BME280;45999;48.808;9.182;2023-08-30T06:28:23;97446.63;;;14.56;100.00
113;BME280;45999;48.808;9.182;2023-08-30T06:30:50;97439.38;;;14.51;100.00
113;BME280;45999;48.808;9.182;2023-08-30T06:33:16;97447.28;;;14.78;100.00
113;BME280;45999;48.808;9.182;2023-08-30T06:35:43;97443.00;;;14.77;100.00
113;BME280;45999;48.808;9.182;2023-08-30T06:38:09;97441.66;;;14.74;100.00
113;BME280;45999;48.808;9.182;2023-08-30T06:40:36;97447.56;;;14.76;100.00
113;BME280;45999;48.808;9.182;2023-08-30T06:43:02;97452.34;;;14.74;100.00
113;BME280;45999;48.808;9.182;2023-08-30T06:45:29;97446.47;;;14.72;100.00
113;BME280;45999;48.808;9.182;2023-08-30T06:47:55;97438.72;;;14.81;100.00
113;BME280;45999;48.808;9.182;2023-08-30T06:50:22;97448.13;;;14.88;100.00
113;BME280;45999;48.808;9.182;2023-08-30T06:52:48;97440.66;;;14.90;100.00
113;BME280;45999;48.808;9.182;2023-08-30T06:55:14;97450.81;;;14.88;100.00
113;BME280;45999;48.808;9.182;2023-08-30T06:57:41;97446.34;;;15.09;100.00
113;BME280;45999;48.808;9.182;2023-08-30T07:00:07;97447.66;;;15.01;100.00
113;BME280;45999;48.808;9.182;2023-08-30T07:02:37;97442.88;;;15.03;100.00
113;BME280;45999;48.808;9.182;2023-08-30T07:05:04;97443.41;;;15.05;100.00
113;BME280;45999;48.808;9.182;2023-08-30T07:07:31;97441.25;;;15.07;100.00
113;BME280;45999;48.808;9.182;2023-08-30T07:09:58;97435.91;;;15.07;100.00
113;BME280;45999;48.808;9.182;2023-08-30T07:12:25;97440.09;;;14.88;100.00
113;BME280;45999;48.808;9.182;2023-08-30T07:14:51;97429.13;;;14.85;100.00
113;BME280;45999;48.808;9.182;2023-08-30T07:17:18;97433.88;;;14.78;100.00
113;BME280;45999;48.808;9.182;2023-08-30T07:19:44;97448.38;;;14.87;100.00
113;BME280;45999;48.808;9.182;2023-08-30T07:22:11;97444.94;;;14.86;100.00
113;BME280;45999;48.808;9.182;2023-08-30T07:24:37;97439.00;;;14.79;100.00
113;BME280;45999;48.808;9.182;2023-08-30T07:27:04;97432.03;;;14.78;100.00
113;BME280;45999;48.808;9.182;2023-08-30T07:29:31;97435.78;;;14.77;100.00
113;BME280;45999;48.808;9.182;2023-08-30T07:31:57;97435.34;;;14.95;100.00
113;BME280;45999;48.808;9.182;2023-08-30T07:34:23;97442.81;;;14.93;100.00
113;BME280;45999;48.808;9.182;2023-08-30T07:36:50;97443.63;;;14.94;100.00
113;BME280;45999;48.808;9.182;2023-08-30T07:39:16;97443.34;;;14.90;100.00
113;BME280;45999;48.808;9.182;2023-08-30T07:41:43;97435.34;;;14.95;100.00
113;BME280;45999;48.808;9.182;2023-08-30T07:44:09;97448.72;;;15.00;100.00
113;BME280;45999;48.808;9.182;2023-08-30T07:46:36;97447.94;;;15.05;100.00
113;BME280;45999;48.808;9.182;2023-08-30T07:49:02;97442.88;;;15.08;100.00
113;BME280;45999;48.808;9.182;2023-08-30T07:51:28;97449.78;;;14.94;100.00
113;BME280;45999;48.808;9.182;2023-08-30T07:53:55;97446.81;;;14.91;100.00
113;BME280;45999;48.808;9.182;2023-08-30T07:56:21;97447.69;;;15.06;100.00
113;BME280;45999;48.808;9.182;2023-08-30T07:58:47;97440.97;;;14.99;100.00
113;BME280;45999;48.808;9.182;2023-08-30T08:01:14;97441.78;;;14.99;100.00
113;BME280;45999;48.808;9.182;2023-08-30T08:03:40;97444.22;;;15.06;100.00
113;BME280;45999;48.808;9.182;2023-08-30T08:06:07;97440.75;;;15.15;100.00
113;BME280;45999;48.808;9.182;2023-08-30T08:08:33;97441.31;;;15.17;100.00
113;BME280;45999;48.808;9.182;2023-08-30T08:11:00;97437.03;;;15.21;100.00
113;BME280;45999;48.808;9.182;2023-08-30T08:13:26;97436.19;;;15.11;100.00
113;BME280;45999;48.808;9.182;2023-08-30T08:15:56;97429.53;;;15.23;100.00
113;BME280;45999;48.808;9.182;2023-08-30T08:18:22;97438.72;;;15.37;100.00
113;BME280;45999;48.808;9.182;2023-08-30T08:20:50;97439.81;;;15.41;100.00
113;BME280;45999;48.808;9.182;2023-08-30T08:23:16;97440.91;;;15.65;100.00
113;BME280;45999;48.808;9.182;2023-08-30T08:25:42;97441.72;;;15.56;100.00
113;BME280;45999;48.808;9.182;2023-08-30T08:28:09;97443.06;;;15.58;100.00
113;BME280;45999;48.808;9.182;2023-08-30T08:30:36;97458.31;;;15.53;100.00
113;BME280;45999;48.808;9.182;2023-08-30T08:33:02;97442.75;;;15.50;100.00
113;BME280;45999;48.808;9.182;2023-08-30T08:35:29;97442.47;;;15.36;100.00
113;BME280;45999;48.808;9.182;2023-08-30T08:37:55;97443.84;;;15.64;100.00
113;BME280;45999;48.808;9.182;2023-08-30T08:40:22;97448.69;;;15.67;100.00
113;BME280;45999;48.808;9.182;2023-08-30T08:42:49;97449.00;;;16.00;100.00
113;BME280;45999;48.808;9.182;2023-08-30T08:45:17;97447.13;;;16.06;100.00
113;BME280;45999;48.808;9.182;2023-08-30T08:47:45;97440.41;;;16.28;100.00
113;BME280;45999;48.808;9.182;2023-08-30T08:50:12;97442.03;;;16.39;100.00
113;BME280;45999;48.808;9.182;2023-08-30T08:52:39;97440.97;;;16.25;100.00
113;BME280;45999;48.808;9.182;2023-08-30T08:55:06;97437.19;;;16.51;100.00
113;BME280;45999;48.808;9.182;2023-08-30T08:57:32;97442.25;;;16.63;100.00
113;BME280;45999;48.808;9.182;2023-08-30T08:59:59;97441.72;;;16.66;100.00
113;BME280;45999;48.808;9.182;2023-08-30T09:02:25;97443.63;;;16.50;100.00
113;BME280;45999;48.808;9.182;2023-08-30T09:04:53;97443.06;;;16.63;100.00
113;BME280;45999;48.808;9.182;2023-08-30T09:07:20;97445.53;;;16.55;100.00
113;BME280;45999;48.808;9.182;2023-08-30T09:09:46;97442.56;;;16.41;100.00
113;BME280;45999;48.808;9.182;2023-08-30T09:12:13;97441.94;;;16.79;100.00
113;BME280;45999;48.808;9.182;2023-08-30T09:14:40;97448.34;;;16.98;100.00
113;BME280;45999;48.808;9.182;2023-08-30T09:17:07;97452.38;;;16.91;100.00
113;BME280;45999;48.808;9.182;2023-08-30T09:19:33;97452.56;;;17.19;100.00
113;BME280;45999;48.808;9.182;2023-08-30T09:21:59;97454.44;;;17.19;100.00
113;BME280;45999;48.808;9.182;2023-08-30T09:24:37;97455.50;;;17.18;100.00
113;BME280;45999;48.808;9.182;2023-08-30T09:27:03;97454.66;;;17.32;100.00
113;BME280;45999;48.808;9.182;2023-08-30T09:29:30;97460.03;;;17.32;100.00
113;BME280;45999;48.808;9.182;2023-08-30T09:31:57;97449.78;;;17.44;100.00
113;BME280;45999;48.808;9.182;2023-08-30T09:34:25;97446.56;;;17.42;100.00
113;BME280;45999;48.808;9.182;2023-08-30T09:36:52;97449.13;;;17.67;100.00
113;BME280;45999;48.808;9.182;2023-08-30T09:39:18;97440.72;;;17.25;100.00
113;BME280;45999;48.808;9.182;2023-08-30T09:41:47;97444.78;;;17.13;100.00
113;BME280;45999;48.808;9.182;2023-08-30T09:44:18;97442.56;;;17.30;100.00
113;BME280;45999;48.808;9.182;2023-08-30T09:46:46;97438.88;;;17.16;100.00
113;BME280;45999;48.808;9.182;2023-08-30T09:49:13;97441.47;;;17.31;100.00
113;BME280;45999;48.808;9.182;2023-08-30T09:51:41;97442.28;;;17.31;100.00
113;BME280;45999;48.808;9.182;2023-08-30T09:54:34;97439.28;;;17.48;100.00
113;BME280;45999;48.808;9.182;2023-08-30T09:57:04;97442.53;;;17.88;100.00
113;BME280;45999;48.808;9.182;2023-08-30T09:59:31;97430.69;;;17.89;100.00
113;BME280;45999;48.808;9.182;2023-08-30T10:01:59;97432.16;;;18.05;100.00
113;BME280;45999;48.808;9.182;2023-08-30T10:04:26;97432.13;;;18.10;100.00
113;BME280;45999;48.808;9.182;2023-08-30T10:06:53;97430.44;;;18.19;100.00
113;BME280;45999;48.808;9.182;2023-08-30T10:09:23;97433.06;;;18.24;100.00
113;BME280;45999;48.808;9.182;2023-08-30T10:11:50;97424.88;;;18.44;100.00
113;BME280;45999;48.808;9.182;2023-08-30T10:14:17;97422.97;;;18.45;100.00
113;BME280;45999;48.808;9.182;2023-08-30T10:16:45;97415.53;;;18.60;100.00
113;BME280;45999;48.808;9.182;2023-08-30T10:19:15;97416.53;;;18.93;100.00
113;BME280;45999;48.808;9.182;2023-08-30T10:21:43;97401.81;;;19.09;100.00
113;BME280;45999;48.808;9.182;2023-08-30T10:24:14;97405.75;;;19.16;100.00
113;BME280;45999;48.808;9.182;2023-08-30T10:26:43;97397.09;;;18.96;100.00
113;BME280;45999;48.808;9.182;2023-08-30T10:29:12;97391.47;;;18.92;100.00
113;BME280;45999;48.808;9.182;2023-08-30T10:31:39;97389.19;;;19.04;100.00
113;BME280;45999;48.808;9.182;2023-08-30T10:34:14;97387.13;;;18.96;100.00
113;BME280;45999;48.808;9.182;2023-08-30T10:36:42;97384.69;;;19.18;100.00
113;BME280;45999;48.808;9.182;2023-08-30T10:39:14;97378.00;;;18.92;100.00
113;BME280;45999;48.808;9.182;2023-08-30T10:41:57;97388.59;;;18.65;100.00
113;BME280;45999;48.808;9.182;2023-08-30T10:44:23;97384.63;;;18.29;100.00
113;BME280;45999;48.808;9.182;2023-08-30T10:46:54;97379.75;;;18.31;100.00
113;BME280;45999;48.808;9.182;2023-08-30T10:49:21;97386.50;;;18.29;100.00
113;BME280;45999;48.808;9.182;2023-08-30T10:51:57;97385.72;;;18.23;100.00
113;BME280;45999;48.808;9.182;2023-08-30T10:54:36;97381.94;;;18.24;100.00
113;BME280;45999;48.808;9.182;2023-08-30T10:57:03;97383.25;;;18.32;100.00
113;BME280;45999;48.808;9.182;2023-08-30T10:59:29;97377.91;;;18.27;100.00
113;BME280;45999;48.808;9.182;2023-08-30T11:01:56;97376.19;;;18.41;100.00
113;BME280;45999;48.808;9.182;2023-08-30T11:04:28;97371.34;;;18.66;100.00
113;BME280;45999;48.808;9.182;2023-08-30T11:06:55;97372.25;;;18.80;97.83
113;BME280;45999;48.808;9.182;2023-08-30T11:09:24;97379.34;;;18.95;97.53
113;BME280;45999;48.808;9.182;2023-08-30T11:11:51;97375.09;;;19.31;97.74
113;BME280;45999;48.808;9.182;2023-08-30T11:14:18;97373.06;;;19.23;98.46
113;BME280;45999;48.808;9.182;2023-08-30T11:16:45;97369.69;;;19.12;100.00
113;BME280;45999;48.808;9.182;2023-08-30T11:19:11;97374.03;;;19.08;100.00
113;BME280;45999;48.808;9.182;2023-08-30T11:21:41;97370.38;;;18.99;97.60
113;BME280;45999;48.808;9.182;2023-08-30T11:24:08;97363.63;;;19.02;100.00
113;BME280;45999;48.808;9.182;2023-08-30T11:26:36;97362.59;;;18.98;99.47
113;BME280;45999;48.808;9.182;2023-08-30T11:29:06;97362.91;;;19.15;99.24
113;BME280;45999;48.808;9.182;2023-08-30T11:31:34;97362.34;;;19.18;94.27
113;BME280;45999;48.808;9.182;2023-08-30T11:34:00;97370.53;;;18.89;95.94
113;BME280;45999;48.808;9.182;2023-08-30T11:36:29;97360.50;;;18.71;100.00
113;BME280;45999;48.808;9.182;2023-08-30T11:38:56;97362.56;;;18.56;100.00
113;BME280;45999;48.808;9.182;2023-08-30T11:41:24;97370.56;;;18.32;100.00
113;BME280;45999;48.808;9.182;2023-08-30T11:43:51;97377.81;;;18.08;100.00
113;BME280;45999;48.808;9.182;2023-08-30T11:46:18;97380.91;;;17.92;100.00
113;BME280;45999;48.808;9.182;2023-08-30T11:48:46;97376.00;;;17.65;100.00
113;BME280;45999;48.808;9.182;2023-08-30T11:51:13;97382.06;;;17.42;100.00
113;BME280;45999;48.808;9.182;2023-08-30T11:53:40;97383.75;;;17.23;100.00
113;BME280;45999;48.808;9.182;2023-08-30T11:56:07;97389.16;;;17.18;100.00
113;BME280;45999;48.808;9.182;2023-08-30T11:58:35;97397.78;;;17.15;100.00
113;BME280;45999;48.808;9.182;2023-08-30T12:01:03;97389.28;;;16.98;100.00
113;BME280;45999;48.808;9.182;2023-08-30T12:03:30;97391.22;;;16.83;100.00
113;BME280;45999;48.808;9.182;2023-08-30T12:05:58;97386.16;;;16.71;100.00
113;BME280;45999;48.808;9.182;2023-08-30T12:08:29;97389.13;;;16.65;100.00
113;BME280;45999;48.808;9.182;2023-08-30T12:10:56;97396.91;;;16.61;100.00
113;BME280;45999;48.808;9.182;2023-08-30T12:13:31;97394.81;;;16.48;100.00
113;BME280;45999;48.808;9.182;2023-08-30T12:15:58;97389.41;;;16.63;100.00
113;BME280;45999;48.808;9.182;2023-08-30T12:18:26;97389.91;;;16.70;100.00
113;BME280;45999;48.808;9.182;2023-08-30T12:23:24;97384.28;;;16.67;100.00
113;BME280;45999;48.808;9.182;2023-08-30T12:26:04;97381.94;;;16.40;100.00
113;BME280;45999;48.808;9.182;2023-08-30T12:28:36;97375.50;;;16.36;100.00
113;BME280;45999;48.808;9.182;2023-08-30T12:31:03;97377.66;;;16.24;100.00
113;BME280;45999;48.808;9.182;2023-08-30T12:33:30;97375.50;;;16.41;100.00
113;BME280;45999;48.808;9.182;2023-08-30T12:35:57;97367.94;;;16.63;100.00
113;BME280;45999;48.808;9.182;2023-08-30T12:38:24;97357.19;;;16.63;100.00
113;BME280;45999;48.808;9.182;2023-08-30T12:40:52;97353.94;;;16.71;100.00
113;BME280;45999;48.808;9.182;2023-08-30T12:43:19;97344.28;;;16.70;100.00
113;BME280;45999;48.808;9.182;2023-08-30T12:45:47;97351.81;;;16.68;100.00
113;BME280;45999;48.808;9.182;2023-08-30T12:48:16;97346.38;;;16.83;100.00
113;BME280;45999;48.808;9.182;2023-08-30T12:50:47;97350.16;;;16.77;100.00
113;BME280;45999;48.808;9.182;2023-08-30T12:53:14;97338.78;;;17.00;100.00
113;BME280;45999;48.808;9.182;2023-08-30T12:55:41;97344.69;;;17.02;100.00
113;BME280;45999;48.808;9.182;2023-08-30T12:58:08;97357.47;;;17.15;100.00
113;BME280;45999;48.808;9.182;2023-08-30T13:00:35;97351.19;;;17.40;100.00
113;BME280;45999;48.808;9.182;2023-08-30T13:03:02;97346.53;;;17.50;100.00
113;BME280;45999;48.808;9.182;2023-08-30T13:05:28;97348.59;;;17.63;100.00
113;BME280;45999;48.808;9.182;2023-08-30T13:07:55;97350.75;;;17.66;100.00
113;BME280;45999;48.808;9.182;2023-08-30T13:10:22;97346.97;;;17.67;100.00
113;BME280;45999;48.808;9.182;2023-08-30T13:12:48;97353.44;;;17.66;100.00
113;BME280;45999;48.808;9.182;2023-08-30T13:15:14;97344.72;;;17.79;100.00
113;BME280;45999;48.808;9.182;2023-08-30T13:17:41;97339.00;;;17.86;100.00
113;BME280;45999;48.808;9.182;2023-08-30T13:20:08;97338.94;;;17.96;100.00
113;BME280;45999;48.808;9.182;2023-08-30T13:22:34;97343.41;;;18.34;100.00